sensor_id;sensor_type;location;lat;lon;timestamp;P1;durP1;ratioP1;P2;durP2;ratioP2
52106;SDS011;38105;52.968;5.974;2023-03-01T00:01:08;21.27;;;17.92;;
52106;SDS011;38105;52.968;5.974;2023-03-01T00:03:36;25.10;;;18.92;;
52106;SDS011;38105;52.968;5.974;2023-03-01T00:06:02;24.38;;;19.75;;
52106;SDS011;38105;52.968;5.974;2023-03-01T00:08:28;20.98;;;18.70;;
52106;SDS011;38105;52.968;5.974;2023-03-01T00:13:29;22.23;;;19.70;;
52106;SDS011;38105;52.968;5.974;2023-03-01T00:15:55;18.60;;;15.05;;
52106;SDS011;38105;52.968;5.974;2023-03-01T00:18:21;16.30;;;14.43;;
52106;SDS011;38105;52.968;5.974;2023-03-01T00:20:51;21.00;;;15.98;;
52106;SDS011;38105;52.968;5.974;2023-03-01T00:23:18;23.90;;;17.42;;
52106;SDS011;38105;52.968;5.974;2023-03-01T00:25:44;22.63;;;18.50;;
52106;SDS011;38105;52.968;5.974;2023-03-01T00:28:09;23.27;;;18.52;;
52106;SDS011;38105;52.968;5.974;2023-03-01T00:30:35;27.08;;;20.20;;
52106;SDS011;38105;52.968;5.974;2023-03-01T00:33:00;24.17;;;19.92;;
52106;SDS011;38105;52.968;5.974;2023-03-01T00:35:26;20.85;;;17.73;;
52106;SDS011;38105;52.968;5.974;2023-03-01T00:37:51;24.63;;;20.35;;
52106;SDS011;38105;52.968;5.974;2023-03-01T00:40:26;24.52;;;20.75;;
52106;SDS011;38105;52.968;5.974;2023-03-01T00:42:52;24.77;;;20.77;;
52106;SDS011;38105;52.968;5.974;2023-03-01T00:45:18;25.27;;;20.67;;
52106;SDS011;38105;52.968;5.974;2023-03-01T00:47:44;24.00;;;19.80;;
52106;SDS011;38105;52.968;5.974;2023-03-01T00:50:10;30.17;;;21.00;;
52106;SDS011;38105;52.968;5.974;2023-03-01T00:52:36;26.60;;;18.75;;
52106;SDS011;38105;52.968;5.974;2023-03-01T00:55:03;21.27;;;18.13;;
52106;SDS011;38105;52.968;5.974;2023-03-01T00:57:30;24.88;;;19.05;;
52106;SDS011;38105;52.968;5.974;2023-03-01T00:59:55;31.55;;;25.02;;
52106;SDS011;38105;52.968;5.974;2023-03-01T01:02:21;26.88;;;21.25;;
52106;SDS011;38105;52.968;5.974;2023-03-01T01:04:47;28.10;;;22.80;;
52106;SDS011;38105;52.968;5.974;2023-03-01T01:07:13;278.00;;;27.80;;
52106;SDS011;38105;52.968;5.974;2023-03-01T01:09:40;314.50;;;25.10;;
52106;SDS011;38105;52.968;5.974;2023-03-01T01:12:06;25.33;;;18.60;;
52106;SDS011;38105;52.968;5.974;2023-03-01T01:14:32;21.63;;;17.98;;
52106;SDS011;38105;52.968;5.974;2023-03-01T01:16:58;25.23;;;19.48;;
52106;SDS011;38105;52.968;5.974;2023-03-01T01:19:24;25.33;;;21.73;;
52106;SDS011;38105;52.968;5.974;2023-03-01T01:21:50;23.13;;;19.23;;
52106;SDS011;38105;52.968;5.974;2023-03-01T01:24:16;27.05;;;19.60;;
52106;SDS011;38105;52.968;5.974;2023-03-01T01:26:42;26.45;;;19.90;;
52106;SDS011;38105;52.968;5.974;2023-03-01T01:29:08;25.42;;;20.08;;
52106;SDS011;38105;52.968;5.974;2023-03-01T01:31:35;25.60;;;20.35;;
52106;SDS011;38105;52.968;5.974;2023-03-01T01:34:03;26.80;;;21.15;;
52106;SDS011;38105;52.968;5.974;2023-03-01T01:36:30;20.60;;;17.15;;
52106;SDS011;38105;52.968;5.974;2023-03-01T01:38:57;20.67;;;15.43;;
52106;SDS011;38105;52.968;5.974;2023-03-01T01:41:23;54.88;;;15.93;;
52106;SDS011;38105;52.968;5.974;2023-03-01T01:46:53;39.58;;;13.77;;
52106;SDS011;38105;52.968;5.974;2023-03-01T01:51:55;31.40;;;14.75;;
52106;SDS011;38105;52.968;5.974;2023-03-01T01:54:36;71.05;;;15.50;;
52106;SDS011;38105;52.968;5.974;2023-03-01T01:57:07;98.95;;;16.40;;
52106;SDS011;38105;52.968;5.974;2023-03-01T01:59:37;189.90;;;18.08;;
52106;SDS011;38105;52.968;5.974;2023-03-01T02:02:05;233.75;;;18.67;;
52106;SDS011;38105;52.968;5.974;2023-03-01T02:04:31;148.93;;;17.52;;
52106;SDS011;38105;52.968;5.974;2023-03-01T02:06:59;342.10;;;19.70;;
52106;SDS011;38105;52.968;5.974;2023-03-01T02:09:30;295.10;;;19.37;;
52106;SDS011;38105;52.968;5.974;2023-03-01T02:11:56;319.00;;;20.15;;
52106;SDS011;38105;52.968;5.974;2023-03-01T02:14:23;324.92;;;20.27;;
52106;SDS011;38105;52.968;5.974;2023-03-01T02:16:48;296.48;;;17.75;;
52106;SDS011;38105;52.968;5.974;2023-03-01T02:19:26;219.77;;;17.30;;
52106;SDS011;38105;52.968;5.974;2023-03-01T02:30:33;287.30;;;22.02;;
52106;SDS011;38105;52.968;5.974;2023-03-01T02:32:59;257.88;;;19.73;;
52106;SDS011;38105;52.968;5.974;2023-03-01T02:35:33;287.30;;;20.02;;
52106;SDS011;38105;52.968;5.974;2023-03-01T02:38:02;262.02;;;21.23;;
52106;SDS011;38105;52.968;5.974;2023-03-01T02:40:31;151.93;;;17.15;;
52106;SDS011;38105;52.968;5.974;2023-03-01T02:42:59;178.30;;;16.65;;
52106;SDS011;38105;52.968;5.974;2023-03-01T02:45:25;157.65;;;15.75;;
52106;SDS011;38105;52.968;5.974;2023-03-01T02:47:56;197.77;;;16.35;;
52106;SDS011;38105;52.968;5.974;2023-03-01T02:50:42;202.95;;;17.02;;
52106;SDS011;38105;52.968;5.974;2023-03-01T02:53:46;284.13;;;15.63;;
52106;SDS011;38105;52.968;5.974;2023-03-01T02:56:24;361.67;;;17.50;;
52106;SDS011;38105;52.968;5.974;2023-03-01T02:58:51;337.75;;;17.65;;
52106;SDS011;38105;52.968;5.974;2023-03-01T03:01:20;351.08;;;18.23;;
52106;SDS011;38105;52.968;5.974;2023-03-01T03:03:46;398.95;;;20.27;;
52106;SDS011;38105;52.968;5.974;2023-03-01T03:06:12;275.80;;;14.80;;
52106;SDS011;38105;52.968;5.974;2023-03-01T03:08:38;273.17;;;15.63;;
52106;SDS011;38105;52.968;5.974;2023-03-01T03:11:04;212.93;;;12.85;;
52106;SDS011;38105;52.968;5.974;2023-03-01T03:13:29;229.85;;;13.10;;
52106;SDS011;38105;52.968;5.974;2023-03-01T03:15:55;281.63;;;15.27;;
52106;SDS011;38105;52.968;5.974;2023-03-01T03:18:21;173.45;;;13.65;;
52106;SDS011;38105;52.968;5.974;2023-03-01T03:20:48;362.42;;;17.15;;
52106;SDS011;38105;52.968;5.974;2023-03-01T03:23:17;351.63;;;17.70;;
52106;SDS011;38105;52.968;5.974;2023-03-01T03:25:44;292.30;;;16.08;;
52106;SDS011;38105;52.968;5.974;2023-03-01T03:28:12;283.23;;;15.10;;
52106;SDS011;38105;52.968;5.974;2023-03-01T03:30:38;281.90;;;14.40;;
52106;SDS011;38105;52.968;5.974;2023-03-01T03:33:06;238.07;;;13.88;;
52106;SDS011;38105;52.968;5.974;2023-03-01T03:35:33;279.50;;;14.38;;
52106;SDS011;38105;52.968;5.974;2023-03-01T03:38:05;309.40;;;15.55;;
52106;SDS011;38105;52.968;5.974;2023-03-01T03:40:38;352.88;;;15.45;;
52106;SDS011;38105;52.968;5.974;2023-03-01T03:43:06;265.83;;;14.70;;
52106;SDS011;38105;52.968;5.974;2023-03-01T03:45:33;352.08;;;16.77;;
52106;SDS011;38105;52.968;5.974;2023-03-01T03:48:00;217.00;;;14.18;;
52106;SDS011;38105;52.968;5.974;2023-03-01T03:50:27;219.82;;;13.70;;
52106;SDS011;38105;52.968;5.974;2023-03-01T03:52:53;263.90;;;15.85;;
52106;SDS011;38105;52.968;5.974;2023-03-01T03:55:19;321.95;;;15.90;;
52106;SDS011;38105;52.968;5.974;2023-03-01T03:57:46;300.60;;;15.27;;
52106;SDS011;38105;52.968;5.974;2023-03-01T04:00:16;139.68;;;12.13;;
52106;SDS011;38105;52.968;5.974;2023-03-01T04:02:44;273.55;;;15.20;;
52106;SDS011;38105;52.968;5.974;2023-03-01T04:05:12;253.73;;;13.98;;
52106;SDS011;38105;52.968;5.974;2023-03-01T04:07:39;369.58;;;15.07;;
52106;SDS011;38105;52.968;5.974;2023-03-01T04:10:07;389.65;;;15.63;;
52106;SDS011;38105;52.968;5.974;2023-03-01T04:12:35;226.65;;;15.77;;
52106;SDS011;38105;52.968;5.974;2023-03-01T04:15:02;222.48;;;12.68;;
52106;SDS011;38105;52.968;5.974;2023-03-01T04:17:38;302.30;;;13.77;;
52106;SDS011;38105;52.968;5.974;2023-03-01T04:20:04;217.93;;;11.80;;
52106;SDS011;38105;52.968;5.974;2023-03-01T04:22:31;294.38;;;14.70;;
52106;SDS011;38105;52.968;5.974;2023-03-01T04:24:58;355.17;;;16.80;;
52106;SDS011;38105;52.968;5.974;2023-03-01T04:27:26;378.60;;;15.30;;
52106;SDS011;38105;52.968;5.974;2023-03-01T04:29:52;428.52;;;21.05;;
52106;SDS011;38105;52.968;5.974;2023-03-01T04:32:18;444.75;;;19.60;;
52106;SDS011;38105;52.968;5.974;2023-03-01T04:34:43;354.95;;;16.27;;
52106;SDS011;38105;52.968;5.974;2023-03-01T04:37:09;152.05;;;13.18;;
52106;SDS011;38105;52.968;5.974;2023-03-01T04:39:34;251.95;;;15.75;;
52106;SDS011;38105;52.968;5.974;2023-03-01T04:42:10;256.48;;;16.73;;
52106;SDS011;38105;52.968;5.974;2023-03-01T04:44:38;144.80;;;14.75;;
52106;SDS011;38105;52.968;5.974;2023-03-01T04:47:04;287.45;;;16.35;;
52106;SDS011;38105;52.968;5.974;2023-03-01T04:49:29;202.50;;;15.98;;
52106;SDS011;38105;52.968;5.974;2023-03-01T04:51:56;281.98;;;17.90;;
52106;SDS011;38105;52.968;5.974;2023-03-01T04:54:27;181.23;;;14.90;;
52106;SDS011;38105;52.968;5.974;2023-03-01T04:56:53;217.45;;;17.33;;
52106;SDS011;38105;52.968;5.974;2023-03-01T04:59:19;221.55;;;17.65;;
52106;SDS011;38105;52.968;5.974;2023-03-01T05:01:50;213.90;;;16.17;;
52106;SDS011;38105;52.968;5.974;2023-03-01T05:04:17;192.10;;;16.20;;
52106;SDS011;38105;52.968;5.974;2023-03-01T05:06:43;179.30;;;17.25;;
52106;SDS011;38105;52.968;5.974;2023-03-01T05:09:09;106.20;;;14.48;;
52106;SDS011;38105;52.968;5.974;2023-03-01T05:11:36;78.82;;;13.57;;
52106;SDS011;38105;52.968;5.974;2023-03-01T05:14:02;59.63;;;13.18;;
52106;SDS011;38105;52.968;5.974;2023-03-01T05:16:29;81.22;;;12.82;;
52106;SDS011;38105;52.968;5.974;2023-03-01T05:18:56;84.63;;;13.15;;
52106;SDS011;38105;52.968;5.974;2023-03-01T05:21:22;122.85;;;14.30;;
52106;SDS011;38105;52.968;5.974;2023-03-01T05:23:48;55.00;;;13.05;;
52106;SDS011;38105;52.968;5.974;2023-03-01T05:26:14;81.55;;;14.60;;
52106;SDS011;38105;52.968;5.974;2023-03-01T05:28:42;63.17;;;13.27;;
52106;SDS011;38105;52.968;5.974;2023-03-01T05:31:08;117.57;;;14.13;;
52106;SDS011;38105;52.968;5.974;2023-03-01T05:33:38;117.50;;;21.25;;
52106;SDS011;38105;52.968;5.974;2023-03-01T05:36:05;155.65;;;15.73;;
52106;SDS011;38105;52.968;5.974;2023-03-01T05:38:32;122.53;;;16.83;;
52106;SDS011;38105;52.968;5.974;2023-03-01T05:40:59;74.03;;;14.07;;
52106;SDS011;38105;52.968;5.974;2023-03-01T05:43:25;64.80;;;13.80;;
52106;SDS011;38105;52.968;5.974;2023-03-01T05:45:50;78.47;;;14.07;;
52106;SDS011;38105;52.968;5.974;2023-03-01T05:48:16;89.13;;;16.30;;
52106;SDS011;38105;52.968;5.974;2023-03-01T05:50:44;99.30;;;15.88;;
52106;SDS011;38105;52.968;5.974;2023-03-01T05:53:16;154.40;;;15.68;;
52106;SDS011;38105;52.968;5.974;2023-03-01T05:55:44;154.30;;;15.43;;
52106;SDS011;38105;52.968;5.974;2023-03-01T05:58:16;117.57;;;18.80;;
52106;SDS011;38105;52.968;5.974;2023-03-01T06:00:45;82.50;;;17.77;;
52106;SDS011;38105;52.968;5.974;2023-03-01T06:03:13;39.08;;;13.27;;
52106;SDS011;38105;52.968;5.974;2023-03-01T06:05:41;30.95;;;16.15;;
52106;SDS011;38105;52.968;5.974;2023-03-01T06:08:08;52.97;;;17.95;;
52106;SDS011;38105;52.968;5.974;2023-03-01T06:10:35;26.98;;;14.45;;
52106;SDS011;38105;52.968;5.974;2023-03-01T06:13:00;53.17;;;14.90;;
52106;SDS011;38105;52.968;5.974;2023-03-01T06:15:26;33.83;;;14.40;;
52106;SDS011;38105;52.968;5.974;2023-03-01T06:17:53;33.55;;;12.43;;
52106;SDS011;38105;52.968;5.974;2023-03-01T06:20:22;16.00;;;11.48;;
52106;SDS011;38105;52.968;5.974;2023-03-01T06:22:49;18.27;;;12.02;;
52106;SDS011;38105;52.968;5.974;2023-03-01T06:25:16;14.68;;;12.00;;
52106;SDS011;38105;52.968;5.974;2023-03-01T06:27:44;13.13;;;11.27;;
52106;SDS011;38105;52.968;5.974;2023-03-01T06:30:11;18.15;;;15.70;;
52106;SDS011;38105;52.968;5.974;2023-03-01T06:32:38;13.93;;;12.18;;
52106;SDS011;38105;52.968;5.974;2023-03-01T06:35:08;11.57;;;10.38;;
52106;SDS011;38105;52.968;5.974;2023-03-01T06:37:35;11.90;;;10.70;;
52106;SDS011;38105;52.968;5.974;2023-03-01T06:40:02;11.13;;;9.93;;
52106;SDS011;38105;52.968;5.974;2023-03-01T06:42:33;11.52;;;10.32;;
52106;SDS011;38105;52.968;5.974;2023-03-01T06:45:04;9.93;;;8.93;;
52106;SDS011;38105;52.968;5.974;2023-03-01T06:47:30;12.35;;;11.05;;
52106;SDS011;38105;52.968;5.974;2023-03-01T06:49:58;12.43;;;10.75;;
52106;SDS011;38105;52.968;5.974;2023-03-01T06:52:24;16.15;;;13.80;;
52106;SDS011;38105;52.968;5.974;2023-03-01T06:54:49;15.07;;;13.07;;
52106;SDS011;38105;52.968;5.974;2023-03-01T06:57:15;16.63;;;11.93;;
52106;SDS011;38105;52.968;5.974;2023-03-01T06:59:41;19.58;;;15.77;;
52106;SDS011;38105;52.968;5.974;2023-03-01T07:02:08;36.35;;;27.55;;
52106;SDS011;38105;52.968;5.974;2023-03-01T07:04:36;11.50;;;10.20;;
52106;SDS011;38105;52.968;5.974;2023-03-01T07:07:01;9.57;;;8.60;;
52106;SDS011;38105;52.968;5.974;2023-03-01T07:09:27;10.30;;;8.95;;
52106;SDS011;38105;52.968;5.974;2023-03-01T07:11:53;10.23;;;8.73;;
52106;SDS011;38105;52.968;5.974;2023-03-01T07:14:18;10.23;;;9.10;;
52106;SDS011;38105;52.968;5.974;2023-03-01T07:16:45;11.15;;;8.95;;
52106;SDS011;38105;52.968;5.974;2023-03-01T07:19:11;9.20;;;8.23;;
52106;SDS011;38105;52.968;5.974;2023-03-01T07:21:36;9.63;;;8.20;;
52106;SDS011;38105;52.968;5.974;2023-03-01T07:24:05;8.25;;;7.45;;
52106;SDS011;38105;52.968;5.974;2023-03-01T07:26:31;10.02;;;8.27;;
52106;SDS011;38105;52.968;5.974;2023-03-01T07:29:00;9.00;;;8.10;;
52106;SDS011;38105;52.968;5.974;2023-03-01T07:31:27;8.77;;;7.93;;
52106;SDS011;38105;52.968;5.974;2023-03-01T07:33:53;8.82;;;7.93;;
52106;SDS011;38105;52.968;5.974;2023-03-01T07:36:19;8.18;;;7.28;;
52106;SDS011;38105;52.968;5.974;2023-03-01T07:38:45;8.85;;;7.60;;
52106;SDS011;38105;52.968;5.974;2023-03-01T07:41:11;8.10;;;7.05;;
52106;SDS011;38105;52.968;5.974;2023-03-01T07:43:36;7.28;;;6.57;;
52106;SDS011;38105;52.968;5.974;2023-03-01T07:46:02;8.07;;;7.30;;
52106;SDS011;38105;52.968;5.974;2023-03-01T07:48:29;7.65;;;6.95;;
52106;SDS011;38105;52.968;5.974;2023-03-01T07:50:59;8.50;;;7.40;;
52106;SDS011;38105;52.968;5.974;2023-03-01T07:53:26;8.40;;;7.57;;
52106;SDS011;38105;52.968;5.974;2023-03-01T07:56:02;7.68;;;6.93;;
52106;SDS011;38105;52.968;5.974;2023-03-01T07:58:31;9.00;;;8.07;;
52106;SDS011;38105;52.968;5.974;2023-03-01T08:01:01;92.97;;;65.60;;
52106;SDS011;38105;52.968;5.974;2023-03-01T08:03:30;27.33;;;23.75;;
52106;SDS011;38105;52.968;5.974;2023-03-01T08:05:58;9.52;;;7.20;;
52106;SDS011;38105;52.968;5.974;2023-03-01T08:08:24;10.35;;;8.00;;
52106;SDS011;38105;52.968;5.974;2023-03-01T08:10:50;8.18;;;6.82;;
52106;SDS011;38105;52.968;5.974;2023-03-01T08:13:16;7.55;;;6.63;;
52106;SDS011;38105;52.968;5.974;2023-03-01T08:15:47;21.40;;;16.65;;
52106;SDS011;38105;52.968;5.974;2023-03-01T08:18:14;17.58;;;13.88;;
52106;SDS011;38105;52.968;5.974;2023-03-01T08:20:40;41.95;;;31.52;;
52106;SDS011;38105;52.968;5.974;2023-03-01T08:23:05;18.65;;;15.00;;
52106;SDS011;38105;52.968;5.974;2023-03-01T08:25:31;13.35;;;9.88;;
52106;SDS011;38105;52.968;5.974;2023-03-01T08:27:56;13.60;;;11.60;;
52106;SDS011;38105;52.968;5.974;2023-03-01T08:30:22;12.13;;;10.75;;
52106;SDS011;38105;52.968;5.974;2023-03-01T08:32:49;12.40;;;10.82;;
52106;SDS011;38105;52.968;5.974;2023-03-01T08:35:16;15.82;;;12.27;;
52106;SDS011;38105;52.968;5.974;2023-03-01T08:37:41;14.15;;;12.20;;
52106;SDS011;38105;52.968;5.974;2023-03-01T08:40:07;14.35;;;12.70;;
52106;SDS011;38105;52.968;5.974;2023-03-01T08:42:35;12.63;;;11.43;;
52106;SDS011;38105;52.968;5.974;2023-03-01T08:45:01;13.25;;;12.00;;
52106;SDS011;38105;52.968;5.974;2023-03-01T08:47:30;13.55;;;11.98;;
52106;SDS011;38105;52.968;5.974;2023-03-01T08:49:56;12.93;;;11.63;;
52106;SDS011;38105;52.968;5.974;2023-03-01T08:52:21;14.75;;;13.25;;
52106;SDS011;38105;52.968;5.974;2023-03-01T08:54:49;15.75;;;14.15;;
52106;SDS011;38105;52.968;5.974;2023-03-01T08:57:15;14.60;;;13.10;;
52106;SDS011;38105;52.968;5.974;2023-03-01T08:59:40;17.17;;;15.13;;
52106;SDS011;38105;52.968;5.974;2023-03-01T09:02:10;14.57;;;13.07;;
52106;SDS011;38105;52.968;5.974;2023-03-01T09:04:38;18.65;;;15.52;;
52106;SDS011;38105;52.968;5.974;2023-03-01T09:07:04;15.35;;;13.80;;
52106;SDS011;38105;52.968;5.974;2023-03-01T09:09:30;16.92;;;15.23;;
52106;SDS011;38105;52.968;5.974;2023-03-01T09:11:56;17.45;;;15.50;;
52106;SDS011;38105;52.968;5.974;2023-03-01T09:14:22;17.27;;;15.45;;
52106;SDS011;38105;52.968;5.974;2023-03-01T09:16:47;17.67;;;15.88;;
52106;SDS011;38105;52.968;5.974;2023-03-01T09:19:13;18.08;;;16.00;;
52106;SDS011;38105;52.968;5.974;2023-03-01T09:21:39;20.77;;;15.73;;
52106;SDS011;38105;52.968;5.974;2023-03-01T09:24:06;16.77;;;15.18;;
52106;SDS011;38105;52.968;5.974;2023-03-01T09:26:38;18.15;;;16.20;;
52106;SDS011;38105;52.968;5.974;2023-03-01T09:29:04;20.52;;;18.33;;
52106;SDS011;38105;52.968;5.974;2023-03-01T09:31:29;20.55;;;18.48;;
52106;SDS011;38105;52.968;5.974;2023-03-01T09:33:55;20.80;;;18.60;;
52106;SDS011;38105;52.968;5.974;2023-03-01T09:36:21;21.85;;;19.75;;
52106;SDS011;38105;52.968;5.974;2023-03-01T09:38:48;20.42;;;18.25;;
52106;SDS011;38105;52.968;5.974;2023-03-01T09:43:52;20.55;;;18.45;;
52106;SDS011;38105;52.968;5.974;2023-03-01T09:46:42;20.23;;;18.15;;
52106;SDS011;38105;52.968;5.974;2023-03-01T09:52:13;19.55;;;17.20;;
52106;SDS011;38105;52.968;5.974;2023-03-01T09:54:49;21.10;;;18.90;;
52106;SDS011;38105;52.968;5.974;2023-03-01T09:57:27;20.90;;;18.67;;
52106;SDS011;38105;52.968;5.974;2023-03-01T10:00:00;20.83;;;18.67;;
52106;SDS011;38105;52.968;5.974;2023-03-01T10:05:12;19.27;;;17.33;;
52106;SDS011;38105;52.968;5.974;2023-03-01T10:10:47;19.45;;;17.38;;
52106;SDS011;38105;52.968;5.974;2023-03-01T10:13:21;18.15;;;15.73;;
52106;SDS011;38105;52.968;5.974;2023-03-01T10:15:53;18.08;;;16.25;;
52106;SDS011;38105;52.968;5.974;2023-03-01T10:18:29;15.70;;;13.23;;
52106;SDS011;38105;52.968;5.974;2023-03-01T10:23:30;17.70;;;15.93;;
52106;SDS011;38105;52.968;5.974;2023-03-01T10:28:42;15.90;;;14.20;;
52106;SDS011;38105;52.968;5.974;2023-03-01T10:31:38;16.73;;;12.93;;
52106;SDS011;38105;52.968;5.974;2023-03-01T10:34:18;14.50;;;12.38;;
52106;SDS011;38105;52.968;5.974;2023-03-01T10:36:45;15.18;;;12.50;;
52106;SDS011;38105;52.968;5.974;2023-03-01T10:39:17;15.90;;;13.88;;
52106;SDS011;38105;52.968;5.974;2023-03-01T10:41:53;17.23;;;12.82;;
52106;SDS011;38105;52.968;5.974;2023-03-01T10:44:37;15.50;;;12.18;;
52106;SDS011;38105;52.968;5.974;2023-03-01T10:47:15;14.88;;;10.77;;
52106;SDS011;38105;52.968;5.974;2023-03-01T10:50:00;13.32;;;11.23;;
52106;SDS011;38105;52.968;5.974;2023-03-01T11:00:47;13.48;;;10.82;;
52106;SDS011;38105;52.968;5.974;2023-03-01T11:03:16;12.95;;;10.55;;
52106;SDS011;38105;52.968;5.974;2023-03-01T11:05:56;12.98;;;10.73;;
52106;SDS011;38105;52.968;5.974;2023-03-01T11:13:38;13.75;;;10.77;;
52106;SDS011;38105;52.968;5.974;2023-03-01T11:16:22;13.85;;;10.55;;
52106;SDS011;38105;52.968;5.974;2023-03-01T11:18:57;14.88;;;11.43;;
52106;SDS011;38105;52.968;5.974;2023-03-01T11:21:52;13.02;;;10.70;;
52106;SDS011;38105;52.968;5.974;2023-03-01T11:24:40;11.52;;;10.32;;
52106;SDS011;38105;52.968;5.974;2023-03-01T11:29:43;14.63;;;10.68;;
52106;SDS011;38105;52.968;5.974;2023-03-01T11:32:12;14.30;;;10.85;;
52106;SDS011;38105;52.968;5.974;2023-03-01T11:34:44;13.52;;;10.75;;
52106;SDS011;38105;52.968;5.974;2023-03-01T11:37:33;13.68;;;10.73;;
52106;SDS011;38105;52.968;5.974;2023-03-01T11:48:37;14.35;;;10.93;;
52106;SDS011;38105;52.968;5.974;2023-03-01T11:54:57;14.57;;;10.45;;
52106;SDS011;38105;52.968;5.974;2023-03-01T12:05:20;13.32;;;10.07;;
52106;SDS011;38105;52.968;5.974;2023-03-01T12:11:20;13.25;;;9.65;;
52106;SDS011;38105;52.968;5.974;2023-03-01T12:22:30;14.38;;;10.07;;
52106;SDS011;38105;52.968;5.974;2023-03-01T12:28:01;15.40;;;9.77;;
52106;SDS011;38105;52.968;5.974;2023-03-01T12:31:14;14.43;;;9.80;;
52106;SDS011;38105;52.968;5.974;2023-03-01T12:33:45;13.85;;;9.95;;
52106;SDS011;38105;52.968;5.974;2023-03-01T12:39:04;13.05;;;10.48;;
52106;SDS011;38105;52.968;5.974;2023-03-01T12:41:48;13.80;;;10.57;;
52106;SDS011;38105;52.968;5.974;2023-03-01T12:50:12;14.77;;;10.75;;
52106;SDS011;38105;52.968;5.974;2023-03-01T12:52:51;15.93;;;12.30;;
52106;SDS011;38105;52.968;5.974;2023-03-01T12:58:26;14.95;;;11.98;;
52106;SDS011;38105;52.968;5.974;2023-03-01T13:06:12;15.40;;;12.18;;
52106;SDS011;38105;52.968;5.974;2023-03-01T13:11:25;15.98;;;12.18;;
52106;SDS011;38105;52.968;5.974;2023-03-01T13:13:51;16.95;;;11.95;;
52106;SDS011;38105;52.968;5.974;2023-03-01T13:21:57;13.93;;;12.07;;
52106;SDS011;38105;52.968;5.974;2023-03-01T13:24:37;17.13;;;11.68;;
52106;SDS011;38105;52.968;5.974;2023-03-01T13:29:47;15.02;;;11.45;;
52106;SDS011;38105;52.968;5.974;2023-03-01T13:32:35;15.32;;;11.80;;
52106;SDS011;38105;52.968;5.974;2023-03-01T13:37:40;14.07;;;11.60;;
52106;SDS011;38105;52.968;5.974;2023-03-01T13:42:44;18.67;;;11.95;;
52106;SDS011;38105;52.968;5.974;2023-03-01T13:45:25;14.48;;;11.48;;
52106;SDS011;38105;52.968;5.974;2023-03-01T13:48:02;17.75;;;11.85;;
52106;SDS011;38105;52.968;5.974;2023-03-01T13:50:36;13.48;;;10.60;;
52106;SDS011;38105;52.968;5.974;2023-03-01T13:53:14;14.50;;;11.25;;
52106;SDS011;38105;52.968;5.974;2023-03-01T13:55:47;12.75;;;10.60;;
52106;SDS011;38105;52.968;5.974;2023-03-01T13:58:33;16.67;;;11.68;;
52106;SDS011;38105;52.968;5.974;2023-03-01T14:01:30;12.48;;;11.10;;
52106;SDS011;38105;52.968;5.974;2023-03-01T14:03:56;14.02;;;10.88;;
52106;SDS011;38105;52.968;5.974;2023-03-01T14:06:27;14.23;;;10.95;;
52106;SDS011;38105;52.968;5.974;2023-03-01T14:09:03;12.77;;;10.30;;
52106;SDS011;38105;52.968;5.974;2023-03-01T14:16:50;13.40;;;11.00;;
52106;SDS011;38105;52.968;5.974;2023-03-01T14:19:27;16.30;;;11.48;;
52106;SDS011;38105;52.968;5.974;2023-03-01T14:24:49;14.27;;;11.15;;
52106;SDS011;38105;52.968;5.974;2023-03-01T14:27:15;12.75;;;11.20;;
52106;SDS011;38105;52.968;5.974;2023-03-01T14:29:41;13.38;;;11.05;;
52106;SDS011;38105;52.968;5.974;2023-03-01T14:32:26;12.70;;;10.90;;
52106;SDS011;38105;52.968;5.974;2023-03-01T14:34:54;15.18;;;11.63;;
52106;SDS011;38105;52.968;5.974;2023-03-01T14:39:45;14.38;;;11.75;;
52106;SDS011;38105;52.968;5.974;2023-03-01T14:42:12;16.63;;;12.32;;
52106;SDS011;38105;52.968;5.974;2023-03-01T14:44:40;13.23;;;11.52;;
52106;SDS011;38105;52.968;5.974;2023-03-01T14:47:12;14.70;;;12.35;;
52106;SDS011;38105;52.968;5.974;2023-03-01T14:49:40;15.25;;;11.82;;
52106;SDS011;38105;52.968;5.974;2023-03-01T14:52:07;14.70;;;11.90;;
52106;SDS011;38105;52.968;5.974;2023-03-01T14:54:47;12.93;;;11.55;;
52106;SDS011;38105;52.968;5.974;2023-03-01T14:57:16;13.95;;;11.43;;
52106;SDS011;38105;52.968;5.974;2023-03-01T14:59:46;12.70;;;11.05;;
52106;SDS011;38105;52.968;5.974;2023-03-01T15:02:17;14.52;;;11.60;;
52106;SDS011;38105;52.968;5.974;2023-03-01T15:04:46;14.77;;;11.95;;
52106;SDS011;38105;52.968;5.974;2023-03-01T15:07:14;14.05;;;11.65;;
52106;SDS011;38105;52.968;5.974;2023-03-01T15:09:40;14.25;;;12.10;;
52106;SDS011;38105;52.968;5.974;2023-03-01T15:14:54;15.68;;;13.02;;
52106;SDS011;38105;52.968;5.974;2023-03-01T15:17:23;17.58;;;13.63;;
52106;SDS011;38105;52.968;5.974;2023-03-01T15:19:52;15.45;;;13.02;;
52106;SDS011;38105;52.968;5.974;2023-03-01T15:22:18;15.70;;;13.02;;
52106;SDS011;38105;52.968;5.974;2023-03-01T15:24:48;15.95;;;13.60;;
52106;SDS011;38105;52.968;5.974;2023-03-01T15:27:15;17.70;;;13.10;;
52106;SDS011;38105;52.968;5.974;2023-03-01T15:29:56;18.75;;;13.85;;
52106;SDS011;38105;52.968;5.974;2023-03-01T15:34:52;18.83;;;14.15;;
52106;SDS011;38105;52.968;5.974;2023-03-01T15:37:36;16.33;;;13.63;;
52106;SDS011;38105;52.968;5.974;2023-03-01T15:42:45;16.90;;;14.32;;
52106;SDS011;38105;52.968;5.974;2023-03-01T15:45:19;16.70;;;14.10;;
52106;SDS011;38105;52.968;5.974;2023-03-01T15:47:52;16.85;;;14.82;;
52106;SDS011;38105;52.968;5.974;2023-03-01T15:52:48;15.88;;;13.55;;
52106;SDS011;38105;52.968;5.974;2023-03-01T15:57:47;17.38;;;13.90;;
52106;SDS011;38105;52.968;5.974;2023-03-01T16:00:13;14.20;;;12.68;;
52106;SDS011;38105;52.968;5.974;2023-03-01T16:02:40;17.85;;;13.82;;
52106;SDS011;38105;52.968;5.974;2023-03-01T16:05:14;15.32;;;12.63;;
52106;SDS011;38105;52.968;5.974;2023-03-01T16:07:45;16.95;;;13.48;;
52106;SDS011;38105;52.968;5.974;2023-03-01T16:10:11;18.30;;;14.70;;
52106;SDS011;38105;52.968;5.974;2023-03-01T16:12:37;15.85;;;14.07;;
52106;SDS011;38105;52.968;5.974;2023-03-01T16:15:04;17.73;;;14.45;;
52106;SDS011;38105;52.968;5.974;2023-03-01T16:17:38;17.40;;;14.40;;
52106;SDS011;38105;52.968;5.974;2023-03-01T16:20:04;18.63;;;15.05;;
52106;SDS011;38105;52.968;5.974;2023-03-01T16:22:30;19.48;;;14.73;;
52106;SDS011;38105;52.968;5.974;2023-03-01T16:24:56;19.02;;;15.55;;
52106;SDS011;38105;52.968;5.974;2023-03-01T16:27:21;17.92;;;15.13;;
52106;SDS011;38105;52.968;5.974;2023-03-01T16:29:47;19.98;;;15.27;;
52106;SDS011;38105;52.968;5.974;2023-03-01T16:32:13;34.53;;;26.48;;
52106;SDS011;38105;52.968;5.974;2023-03-01T16:34:38;21.70;;;18.33;;
52106;SDS011;38105;52.968;5.974;2023-03-01T16:37:04;18.27;;;16.33;;
52106;SDS011;38105;52.968;5.974;2023-03-01T16:39:29;20.95;;;17.42;;
52106;SDS011;38105;52.968;5.974;2023-03-01T16:41:55;20.08;;;16.27;;
52106;SDS011;38105;52.968;5.974;2023-03-01T16:44:21;20.60;;;16.42;;
52106;SDS011;38105;52.968;5.974;2023-03-01T16:46:46;21.25;;;17.67;;
52106;SDS011;38105;52.968;5.974;2023-03-01T16:49:12;21.25;;;17.67;;
52106;SDS011;38105;52.968;5.974;2023-03-01T16:51:38;22.42;;;18.40;;
52106;SDS011;38105;52.968;5.974;2023-03-01T16:54:03;21.45;;;18.15;;